Time;durP1;ratioP1;P1;durP2;ratioP2;P2;SDS_P1;SDS_P2;PMS_P1;PMS_P2;Temp;Humidity;BMP_temperature;BMP_pressure;BME280_temperature;BME280_humidity;BME280_pressure;Samples;Min_cycle;Max_cycle;Signal;HPM_P1;HPM_P2
2021/07/29 00:00:36;;;;;;;;;4.00;2.25;;;;;18.45;59.70;101148.72;5080593;27;45528;-70
2021/07/29 00:03:03;;;;;;;;;3.75;2.00;;;;;18.47;60.01;101154.78;5077678;28;46339;-70
2021/07/29 00:05:30;;;;;;;;;3.00;3.00;;;;;18.42;60.22;101147.13;5079291;28;45774;-70
2021/07/29 00:07:56;;;;;;;;;2.25;1.75;;;;;18.41;60.19;101157.88;5074915;27;45406;-70
2021/07/29 00:10:22;;;;;;;;;2.25;2.00;;;;;18.38;60.87;101160.75;5074344;27;45428;-70
2021/07/29 00:12:47;;;;;;;;;2.75;2.50;;;;;18.35;61.02;101156.50;5075507;27;45675;-70
2021/07/29 00:15:15;;;;;;;;;4.75;2.50;;;;;18.34;60.72;101152.13;5076922;27;45761;-70
2021/07/29 00:20:21;;;;;;;;;2.00;2.00;;;;;18.32;61.44;101146.03;5075784;27;45518;-70
2021/07/29 00:22:49;;;;;;;;;2.50;2.50;;;;;18.31;61.01;101149.66;5075220;28;45706;-70
2021/07/29 00:25:15;;;;;;;;;2.50;2.50;;;;;18.29;61.45;101156.06;5075382;27;45843;-70
2021/07/29 00:27:42;;;;;;;;;3.00;3.00;;;;;18.29;61.61;101158.72;5074920;27;45373;-70
2021/07/29 00:30:10;;;;;;;;;5.25;3.75;;;;;18.26;61.50;101155.31;5076837;27;45358;-70
2021/07/29 00:32:35;;;;;;;;;3.25;3.00;;;;;18.22;61.43;101152.97;5073155;27;46442;-70
2021/07/29 00:35:09;;;;;;;;;2.75;2.00;;;;;18.21;62.13;101148.59;5075494;27;45421;-70
2021/07/29 00:37:35;;;;;;;;;4.00;3.50;;;;;18.17;61.98;101140.00;5075161;28;45369;-70
2021/07/29 00:40:02;;;;;;;;;3.00;3.00;;;;;18.19;61.84;101153.19;5056855;28;45507;-70
2021/07/29 00:42:28;;;;;;;;;2.25;2.00;;;;;18.14;62.31;101139.34;5071345;28;48277;-70
2021/07/29 00:44:53;;;;;;;;;2.00;2.00;;;;;18.12;62.73;101147.44;5073846;28;45517;-70
2021/07/29 00:47:19;;;;;;;;;4.75;3.00;;;;;18.12;62.88;101147.44;5073678;28;45294;-70
2021/07/29 00:49:46;;;;;;;;;3.50;2.50;;;;;18.10;62.45;101144.00;5073794;27;45420;-70
2021/07/29 00:52:16;;;;;;;;;4.00;3.25;;;;;18.08;63.02;101145.94;5071704;27;47745;-70
2021/07/29 00:54:43;;;;;;;;;3.00;3.00;;;;;18.05;63.23;101140.81;5073213;28;45692;-70
2021/07/29 00:57:09;;;;;;;;;2.25;2.25;;;;;18.05;63.17;101140.81;5076925;27;45412;-70
2021/07/29 00:59:36;;;;;;;;;3.00;2.75;;;;;18.04;63.32;101138.25;5074298;27;45552;-70
2021/07/29 01:02:02;;;;;;;;;3.00;3.00;;;;;18.03;63.42;101141.88;5074586;27;46287;-70
2021/07/29 01:04:27;;;;;;;;;4.00;3.00;;;;;18.00;63.19;101141.09;5074731;28;45467;-70
2021/07/29 01:06:54;;;;;;;;;3.50;3.25;;;;;17.96;63.49;101142.28;5074915;27;45714;-70
2021/07/29 01:09:19;;;;;;;;;3.25;2.75;;;;;17.94;64.04;101136.22;5076881;27;45228;-70
2021/07/29 01:11:45;;;;;;;;;5.00;2.50;;;;;17.92;63.58;101135.47;5072580;27;45494;-70
2021/07/29 01:14:11;;;;;;;;;5.25;2.00;;;;;17.90;63.59;101140.03;5073869;27;45437;-70
2021/07/29 01:16:37;;;;;;;;;3.25;3.25;;;;;17.93;63.67;101138.97;5074590;27;45345;-70
2021/07/29 01:19:05;;;;;;;;;3.25;3.00;;;;;17.92;64.35;101150.59;5073040;27;45420;-70
2021/07/29 01:21:31;;;;;;;;;3.75;3.75;;;;;17.89;63.75;101148.97;5076122;27;45464;-70
2021/07/29 01:23:57;;;;;;;;;4.00;4.00;;;;;17.89;64.16;101164.06;5072890;27;45755;-70
2021/07/29 01:26:24;;;;;;;;;2.75;2.00;;;;;17.87;64.67;101158.88;5074202;28;45473;-70
2021/07/29 01:28:50;;;;;;;;;4.75;3.50;;;;;17.86;64.05;101164.28;5072714;27;45553;-70
2021/07/29 01:31:16;;;;;;;;;3.00;3.00;;;;;17.78;64.44;101155.97;5074703;27;45436;-70
2021/07/29 01:33:41;;;;;;;;;2.00;2.00;;;;;17.81;64.54;101156.63;5075100;28;50098;-70
2021/07/29 01:36:07;;;;;;;;;3.00;3.00;;;;;17.80;65.11;101156.69;5074265;28;45336;-70
2021/07/29 01:38:32;;;;;;;;;2.00;2.00;;;;;17.67;64.85;101144.19;5074051;27;45794;-70
2021/07/29 01:40:58;;;;;;;;;3.00;1.25;;;;;17.71;65.15;101152.81;5073970;27;45655;-70
2021/07/29 01:43:24;;;;;;;;;4.50;2.00;;;;;17.68;65.03;101156.53;5070819;28;45318;-70
2021/07/29 01:45:49;;;;;;;;;3.00;3.00;;;;;17.66;65.06;101168.22;5074130;27;45381;-70
2021/07/29 01:48:15;;;;;;;;;6.00;3.25;;;;;17.59;65.69;101165.13;5074972;28;45566;-70
2021/07/29 01:50:40;;;;;;;;;3.75;3.75;;;;;17.58;65.64;101160.75;5072244;27;45559;-70
2021/07/29 01:53:05;;;;;;;;;6.00;3.50;;;;;17.59;65.92;101162.47;5073774;28;45522;-70
2021/07/29 01:55:31;;;;;;;;;3.75;3.75;;;;;17.57;65.76;101163.50;5074547;27;45366;-70
2021/07/29 01:57:56;;;;;;;;;4.50;3.50;;;;;17.55;65.79;101163.63;5073532;28;45519;-70
2021/07/29 02:00:24;;;;;;;;;6.00;3.00;;;;;17.50;66.03;101159.56;5075715;27;45374;-70
2021/07/29 02:02:50;;;;;;;;;3.00;3.00;;;;;17.51;66.07;101158.59;5073743;27;45331;-70
2021/07/29 02:05:15;;;;;;;;;6.00;3.25;;;;;17.48;66.15;101171.13;5073837;28;45434;-70
2021/07/29 02:07:41;;;;;;;;;6.00;4.00;;;;;17.43;66.30;101162.59;5072817;27;45442;-70
2021/07/29 02:10:06;;;;;;;;;6.50;4.00;;;;;17.46;66.42;101167.72;5073770;27;45424;-70
2021/07/29 02:12:33;;;;;;;;;4.50;2.75;;;;;17.47;66.46;101171.22;5075126;27;45505;-70
2021/07/29 02:14:59;;;;;;;;;5.75;4.00;;;;;17.46;66.40;101172.19;5072191;27;45439;-70
2021/07/29 02:17:24;;;;;;;;;10.25;3.00;;;;;17.40;67.00;101165.47;5072344;28;45464;-70
2021/07/29 02:19:49;;;;;;;;;3.25;3.25;;;;;17.39;66.61;101169.06;5073724;27;45346;-70
2021/07/29 02:22:15;;;;;;;;;2.50;2.50;;;;;17.38;66.72;101162.06;5073437;28;45331;-70
2021/07/29 02:24:41;;;;;;;;;4.00;3.00;;;;;17.37;67.00;101165.66;5074683;27;45409;-70
2021/07/29 02:27:06;;;;;;;;;5.00;3.75;;;;;17.33;66.97;101158.84;5074023;28;45613;-70
2021/07/29 02:29:31;;;;;;;;;4.00;3.75;;;;;17.32;67.42;101167.75;5071571;27;46289;-70
2021/07/29 02:31:57;;;;;;;;;3.00;3.00;;;;;17.24;67.54;101159.44;5073328;27;45442;-70
2021/07/29 02:34:22;;;;;;;;;3.00;3.00;;;;;17.26;67.42;101170.81;5073268;28;45415;-70
2021/07/29 02:36:49;;;;;;;;;3.25;3.25;;;;;17.25;67.61;101163.78;5073515;27;45384;-70
2021/07/29 02:39:15;;;;;;;;;7.00;3.00;;;;;17.12;67.98;101149.56;5075035;27;46586;-70
2021/07/29 02:41:40;;;;;;;;;3.00;2.50;;;;;17.20;67.70;101173.84;5072757;28;45535;-70
2021/07/29 02:44:06;;;;;;;;;3.50;3.50;;;;;17.17;67.74;101174.03;5072932;28;45481;-70
2021/07/29 02:46:31;;;;;;;;;3.00;3.00;;;;;17.15;67.47;101179.44;5070953;27;45446;-70
2021/07/29 02:48:57;;;;;;;;;4.50;2.75;;;;;17.15;68.35;101181.25;5073449;27;45576;-70
2021/07/29 02:51:22;;;;;;;;;4.00;2.75;;;;;17.09;68.63;101174.53;5074674;27;45303;-70
2021/07/29 02:53:47;;;;;;;;;6.00;3.50;;;;;17.10;68.52;101181.53;5069070;28;45315;-70
2021/07/29 02:56:13;;;;;;;;;3.75;3.00;;;;;17.08;68.37;101175.50;5072689;27;45785;-70
2021/07/29 02:58:38;;;;;;;;;5.00;4.00;;;;;16.95;68.71;101161.25;5072703;27;45589;-70
2021/07/29 03:01:04;;;;;;;;;4.00;3.00;;;;;17.07;68.96;101187.06;5073450;28;45591;-70
2021/07/29 03:03:30;;;;;;;;;4.50;2.00;;;;;17.03;68.63;101187.34;5075212;27;45425;-70
2021/07/29 03:05:55;;;;;;;;;1.75;1.75;;;;;17.03;68.99;101195.31;5072938;27;45618;-70
2021/07/29 03:08:21;;;;;;;;;5.75;4.25;;;;;17.01;69.16;101189.22;5071228;28;46569;-70
2021/07/29 03:10:47;;;;;;;;;3.25;3.00;;;;;16.98;69.01;101192.94;5072444;27;45643;-70
2021/07/29 03:13:13;;;;;;;;;1.00;1.00;;;;;16.98;68.82;101192.09;5072631;27;45488;-70
2021/07/29 03:15:39;;;;;;;;;4.00;3.00;;;;;16.91;69.22;101197.78;5074251;27;45461;-70
2021/07/29 03:18:04;;;;;;;;;3.00;3.00;;;;;16.90;69.46;101190.75;5089529;27;46583;-70
2021/07/29 03:20:29;;;;;;;;;4.75;3.00;;;;;16.89;69.59;101189.06;5072776;28;45284;-70
2021/07/29 03:22:55;;;;;;;;;3.50;2.25;;;;;16.88;69.53;101194.47;5072721;28;45349;-70
2021/07/29 03:25:20;;;;;;;;;4.50;3.75;;;;;16.85;69.62;101189.34;5071213;27;45532;-70
2021/07/29 03:27:45;;;;;;;;;4.75;3.75;;;;;16.84;70.05;101190.28;5072450;27;46571;-70
2021/07/29 03:30:11;;;;;;;;;3.00;3.00;;;;;16.80;69.75;101194.91;5074690;28;45439;-70
2021/07/29 03:32:37;;;;;;;;;5.00;3.00;;;;;16.78;69.79;101188.88;5072727;28;45378;-70
2021/07/29 03:35:03;;;;;;;;;3.50;3.50;;;;;16.75;70.33;101189.03;5072534;28;45330;-70
2021/07/29 03:37:28;;;;;;;;;3.00;3.00;;;;;16.76;69.89;101190.78;5072502;28;45333;-70
2021/07/29 03:39:54;;;;;;;;;4.50;3.00;;;;;16.77;70.35;101191.63;5071269;27;45474;-70
2021/07/29 03:42:22;;;;;;;;;3.25;3.00;;;;;16.73;70.52;101195.41;5076293;27;45381;-70
2021/07/29 03:44:48;;;;;;;;;3.50;3.50;;;;;16.74;70.53;101190.00;5075677;27;45397;-70
2021/07/29 03:47:13;;;;;;;;;5.50;2.50;;;;;16.70;70.33;101189.31;5073917;27;45789;-70
2021/07/29 03:49:38;;;;;;;;;3.00;2.25;;;;;16.72;70.75;101191.06;5075716;27;45461;-70
2021/07/29 03:52:04;;;;;;;;;3.00;3.00;;;;;16.72;70.97;101191.91;5076193;28;45470;-70
2021/07/29 03:54:31;;;;;;;;;4.50;3.00;;;;;16.64;70.68;101188.81;5077565;27;45378;-70
2021/07/29 03:56:56;;;;;;;;;5.50;4.00;;;;;16.66;70.38;101197.56;5071585;28;46226;-70
2021/07/29 03:59:21;;;;;;;;;2.75;2.75;;;;;16.64;70.67;101196.78;5075637;27;45414;-70
2021/07/29 04:01:47;;;;;;;;;3.75;3.75;;;;;16.70;70.65;101204.38;5075780;28;45579;-70
2021/07/29 04:04:12;;;;;;;;;5.75;5.25;;;;;16.65;71.31;101190.53;5074580;27;45443;-70
2021/07/29 04:06:37;;;;;;;;;4.50;3.00;;;;;16.72;71.34;101205.19;5076971;27;45560;-70
2021/07/29 04:09:03;;;;;;;;;4.50;4.00;;;;;16.75;71.54;101201.47;5076109;27;45374;-70
2021/07/29 04:11:28;;;;;;;;;4.00;3.00;;;;;16.77;71.00;101204.91;5075711;27;45631;-70
2021/07/29 04:13:54;;;;;;;;;2.75;2.75;;;;;16.77;71.53;101205.75;5074920;27;45259;-70
2021/07/29 04:16:19;;;;;;;;;4.75;3.00;;;;;16.79;71.18;101203.00;5075455;27;45614;-70
2021/07/29 04:18:44;;;;;;;;;3.75;3.00;;;;;16.81;71.23;101207.28;5075759;27;45579;-70
2021/07/29 04:21:16;;;;;;;;;7.00;3.00;;;;;16.84;71.42;101209.72;5077103;28;45438;-70
2021/07/29 04:23:42;;;;;;;;;4.00;4.00;;;;;16.86;71.26;101207.84;5074917;27;45610;-70
2021/07/29 04:26:07;;;;;;;;;5.25;4.00;;;;;16.91;71.24;101212.84;5073514;27;46562;-70
2021/07/29 04:28:32;;;;;;;;;4.75;3.25;;;;;16.97;71.55;101214.28;5075298;27;45406;-70
2021/07/29 04:30:58;;;;;;;;;4.75;4.00;;;;;16.98;70.99;101216.00;5075425;27;45559;-70
2021/07/29 04:33:23;;;;;;;;;4.25;4.00;;;;;16.98;71.41;101210.69;5077573;27;45488;-70
2021/07/29 04:35:48;;;;;;;;;4.00;3.75;;;;;16.97;71.13;101214.28;5075145;27;46136;-70
2021/07/29 04:38:14;;;;;;;;;3.25;3.00;;;;;16.92;71.21;101203.97;5070136;27;45433;-70
2021/07/29 04:40:39;;;;;;;;;3.75;2.00;;;;;16.91;71.12;101203.09;5075352;27;45306;-70
2021/07/29 04:43:04;;;;;;;;;3.00;3.00;;;;;16.92;71.31;101212.78;5074207;27;45407;-70
2021/07/29 04:45:30;;;;;;;;;3.25;3.00;;;;;16.94;71.51;101213.50;5077144;27;46443;-70
2021/07/29 04:47:55;;;;;;;;;4.50;2.75;;;;;16.93;71.49;101214.47;5074997;27;45365;-70
2021/07/29 04:50:22;;;;;;;;;5.50;4.75;;;;;16.97;71.74;101216.94;5074958;27;45315;-70
2021/07/29 04:52:50;;;;;;;;;3.75;3.75;;;;;17.00;71.78;101214.09;5074282;27;47645;-70
2021/07/29 04:55:15;;;;;;;;;4.50;3.25;;;;;17.04;71.54;101210.28;5075282;27;45370;-70
2021/07/29 04:57:41;;;;;;;;;9.00;6.00;;;;;17.05;71.44;101212.84;5075706;27;45449;-70
2021/07/29 05:00:07;;;;;;;;;3.50;3.00;;;;;17.04;71.80;101219.13;5076031;27;45348;-70
2021/07/29 05:02:32;;;;;;;;;8.00;3.00;;;;;17.04;71.35;101213.81;5074292;27;45416;-70
2021/07/29 05:04:57;;;;;;;;;3.00;3.00;;;;;17.06;71.75;101211.88;5072610;27;45334;-70
2021/07/29 05:07:23;;;;;;;;;4.25;4.25;;;;;17.13;71.94;101228.31;5070727;28;45631;-70
2021/07/29 05:09:48;;;;;;;;;5.00;3.00;;;;;17.07;71.69;101213.63;5073419;27;45897;-70
2021/07/29 05:12:13;;;;;;;;;6.75;4.00;;;;;17.13;71.26;101215.03;5076892;27;45362;-70
2021/07/29 05:14:39;;;;;;;;;3.00;3.00;;;;;17.15;71.54;101213.97;5074323;27;45527;-70
2021/07/29 05:17:04;;;;;;;;;5.25;4.25;;;;;17.22;71.26;101227.72;5074569;27;45450;-70
2021/07/29 05:19:30;;;;;;;;;4.00;3.00;;;;;17.28;70.87;101229.13;5074653;27;45608;-70
2021/07/29 05:21:56;;;;;;;;;5.25;3.00;;;;;17.28;71.32;101226.47;5074266;27;45381;-70
2021/07/29 05:24:21;;;;;;;;;4.00;4.00;;;;;17.26;71.67;101215.97;5075258;27;46384;-70
2021/07/29 05:26:46;;;;;;;;;4.00;4.00;;;;;17.27;71.57;101222.13;5074207;27;45426;-70
2021/07/29 05:29:12;;;;;;;;;5.50;3.25;;;;;17.31;71.44;101219.19;5070357;28;45408;-70
2021/07/29 05:31:41;;;;;;;;;3.50;3.50;;;;;17.40;71.36;101223.06;5074312;28;45371;-70
2021/07/29 05:34:07;;;;;;;;;4.50;2.00;;;;;17.46;71.46;101226.19;5073915;28;45490;-70
2021/07/29 05:36:32;;;;;;;;;5.75;4.75;;;;;17.52;70.69;101234.69;5075834;27;45298;-70
2021/07/29 05:38:57;;;;;;;;;3.00;3.00;;;;;17.51;71.20;101233.00;5072756;28;45251;-70
2021/07/29 05:41:23;;;;;;;;;5.75;3.25;;;;;17.58;70.91;101231.66;5070084;27;45564;-70
2021/07/29 05:43:49;;;;;;;;;3.00;3.00;;;;;17.63;70.88;101237.53;5072474;27;45610;-70
2021/07/29 05:46:14;;;;;;;;;7.00;5.25;;;;;17.65;70.65;101240.94;5073852;27;45564;-70
2021/07/29 05:48:40;;;;;;;;;3.25;3.25;;;;;17.67;70.77;101239.88;5075257;27;45372;-70
2021/07/29 05:51:06;;;;;;;;;4.00;2.00;;;;;17.69;70.69;101234.47;5074483;27;45499;-70
2021/07/29 05:53:31;;;;;;;;;4.50;4.50;;;;;17.74;70.40;101241.22;5073789;27;45406;-70
2021/07/29 05:55:57;;;;;;;;;6.75;4.00;;;;;17.79;70.44;101242.72;5074358;27;45786;-70
2021/07/29 05:58:22;;;;;;;;;6.00;5.00;;;;;17.86;70.30;101242.25;5073945;27;47307;-70
2021/07/29 06:00:48;;;;;;;;;4.00;4.00;;;;;17.98;70.24;101243.25;5074992;27;45645;-70
2021/07/29 06:03:14;;;;;;;;;5.25;3.50;;;;;18.06;70.15;101235.59;5088907;27;47087;-70
2021/07/29 06:05:40;;;;;;;;;6.50;3.25;;;;;18.18;69.92;101231.28;5072340;28;45486;-71
2021/07/29 06:08:05;;;;;;;;;3.25;3.25;;;;;18.28;69.72;101239.50;5073922;27;45301;-70
2021/07/29 06:10:31;;;;;;;;;5.25;2.75;;;;;18.35;69.34;101224.81;5073768;28;45477;-70
2021/07/29 06:12:56;;;;;;;;;4.00;3.00;;;;;18.43;69.58;101228.69;5073305;27;46299;-70
2021/07/29 06:15:22;;;;;;;;;7.00;5.50;;;;;18.48;69.09;101231.03;5075575;27;45424;-70
2021/07/29 06:17:54;;;;;;;;;4.50;4.00;;;;;18.52;68.64;101233.34;5073907;28;45431;-70
2021/07/29 06:20:19;;;;;;;;;5.25;4.50;;;;;18.65;68.71;101235.19;5073183;27;45247;-70
2021/07/29 06:22:45;;;;;;;;;4.00;4.00;;;;;18.72;68.96;101229.34;5071868;28;46650;-70
2021/07/29 06:25:12;;;;;;;;;8.25;5.50;;;;;18.78;68.57;101238.72;5073635;27;45473;-70
2021/07/29 06:27:38;;;;;;;;;3.75;3.75;;;;;18.82;67.87;101244.69;5073959;27;45438;-70
2021/07/29 06:30:07;;;;;;;;;4.25;3.50;;;;;18.88;68.62;101249.59;5074250;27;45384;-70
2021/07/29 06:32:32;;;;;;;;;3.50;3.50;;;;;18.91;67.97;101250.25;5072662;27;45664;-70
2021/07/29 06:34:57;;;;;;;;;4.25;3.75;;;;;18.93;67.71;101252.78;5072661;27;45527;-70
2021/07/29 06:37:23;;;;;;;;;4.50;4.00;;;;;19.04;67.88;101261.72;5074493;27;45386;-70
2021/07/29 06:39:48;;;;;;;;;6.75;4.25;;;;;19.19;67.62;101261.63;5074683;27;45373;-70
2021/07/29 06:42:13;;;;;;;;;5.00;4.00;;;;;19.40;67.18;101261.91;5073115;28;45679;-70
2021/07/29 06:44:41;;;;;;;;;3.50;3.50;;;;;19.65;66.91;101261.03;5073075;27;45327;-70
2021/07/29 06:47:07;;;;;;;;;6.25;5.00;;;;;19.66;65.39;101258.25;5072813;28;45413;-70
2021/07/29 06:49:34;;;;;;;;;4.00;2.75;;;;;19.50;65.94;101262.94;5073325;28;45275;-70
2021/07/29 06:51:59;;;;;;;;;4.75;3.25;;;;;19.46;65.79;101266.78;5073291;27;46081;-70
2021/07/29 06:54:25;;;;;;;;;4.50;4.50;;;;;19.40;66.11;101256.56;5075145;27;45433;-70
2021/07/29 06:56:50;;;;;;;;;6.25;4.00;;;;;19.38;65.48;101267.34;5073211;27;45406;-70
2021/07/29 06:59:15;;;;;;;;;5.75;4.00;;;;;19.29;65.58;101270.66;5073058;28;45421;-70
2021/07/29 07:01:41;;;;;;;;;5.00;4.00;;;;;19.33;66.23;101269.50;5071236;27;46253;-70
2021/07/29 07:04:06;;;;;;;;;5.25;4.75;;;;;19.38;66.09;101258.50;5072760;28;45383;-70
2021/07/29 07:06:34;;;;;;;;;4.50;3.75;;;;;19.59;65.86;101267.66;5075251;28;45348;-70
2021/07/29 07:08:59;;;;;;;;;6.25;3.00;;;;;19.84;65.61;101271.19;5072135;28;45419;-70
2021/07/29 07:11:24;;;;;;;;;3.75;3.50;;;;;19.93;65.06;101276.69;5072516;27;45439;-70
2021/07/29 07:13:50;;;;;;;;;5.50;3.00;;;;;20.29;64.66;101282.94;5073101;28;45530;-70
2021/07/29 07:16:15;;;;;;;;;6.00;5.00;;;;;21.14;64.62;101283.53;5074652;27;45370;-70
2021/07/29 07:18:41;;;;;;;;;3.00;3.00;;;;;21.83;63.26;101286.91;5077264;27;45676;-70
2021/07/29 07:21:09;;;;;;;;;4.00;2.25;;;;;22.09;62.34;101286.59;5075955;27;46490;-70
2021/07/29 07:23:35;;;;;;;;;4.25;3.25;;;;;22.28;59.95;101289.47;5076243;27;45577;-70
2021/07/29 07:26:01;;;;;;;;;2.00;2.00;;;;;22.08;60.36;101291.13;5076141;27;45486;-70
2021/07/29 07:28:27;;;;;;;;;4.00;4.00;;;;;21.88;60.10;101303.44;5076319;27;45429;-70
2021/07/29 07:30:53;;;;;;;;;2.00;2.00;;;;;21.70;59.64;101296.06;5076123;27;46691;-70
2021/07/29 07:33:18;;;;;;;;;4.00;1.75;;;;;21.42;59.67;101281.38;5078250;27;45319;-70
2021/07/29 07:35:44;;;;;;;;;7.50;6.00;;;;;21.34;60.57;101290.00;5076222;27;45323;-70
2021/07/29 07:38:09;;;;;;;;;3.75;3.75;;;;;21.44;61.11;101293.66;5076085;27;45469;-70
2021/07/29 07:40:36;;;;;;;;;4.00;4.00;;;;;21.49;61.08;101291.47;5073175;28;47053;-70
2021/07/29 07:43:02;;;;;;;;;3.00;3.00;;;;;21.53;60.79;101289.41;5070252;28;45863;-70
2021/07/29 07:45:28;;;;;;;;;5.00;3.00;;;;;21.56;60.55;101290.00;5076625;27;45474;-71
2021/07/29 07:47:53;;;;;;;;;4.25;4.25;;;;;21.58;60.61;101288.06;5075189;27;45589;-70
2021/07/29 07:50:18;;;;;;;;;4.00;3.25;;;;;21.84;60.38;101290.44;5076162;27;45515;-70
2021/07/29 07:52:44;;;;;;;;;4.00;3.25;;;;;22.78;59.87;101292.38;5076010;27;45700;-70
2021/07/29 07:55:09;;;;;;;;;5.00;3.50;;;;;23.23;57.86;101285.88;5076126;27;45493;-70
2021/07/29 07:57:34;;;;;;;;;4.00;3.00;;;;;23.33;58.50;101290.28;5078293;27;45405;-70
2021/07/29 08:00:00;;;;;;;;;5.00;3.50;;;;;23.54;57.11;101286.69;5074073;27;45492;-70
2021/07/29 08:02:26;;;;;;;;;6.00;5.00;;;;;23.76;56.88;101283.00;5075596;27;45578;-70
2021/07/29 08:04:52;;;;;;;;;3.25;3.00;;;;;24.25;55.29;101287.44;5075870;27;45501;-70
2021/07/29 08:07:18;;;;;;;;;3.00;3.00;;;;;24.67;55.52;101284.47;5075906;27;45563;-70
2021/07/29 08:09:43;;;;;;;;;4.25;2.25;;;;;25.13;54.73;101283.66;5076489;27;45559;-70
2021/07/29 08:12:09;;;;;;;;;3.25;2.25;;;;;25.69;52.73;101285.38;5077092;28;45426;-70
2021/07/29 08:14:35;;;;;;;;;4.75;3.75;;;;;25.51;52.14;101285.31;5074529;27;45339;-70
2021/07/29 08:17:02;;;;;;;;;4.00;4.00;;;;;27.09;50.64;101282.09;5075200;27;45368;-71
2021/07/29 08:19:28;;;;;;;;;5.00;3.00;;;;;26.85;50.58;101283.63;5073301;28;45602;-70
2021/07/29 08:21:54;;;;;;;;;3.75;2.75;;;;;26.73;50.78;101283.03;5075574;27;45258;-70
2021/07/29 08:24:19;;;;;;;;;3.25;3.25;;;;;28.31;50.36;101271.69;5077624;27;45504;-70
2021/07/29 08:26:44;;;;;;;;;2.25;2.25;;;;;29.63;47.94;101274.00;5070691;28;45497;-70
2021/07/29 08:29:10;;;;;;;;;2.00;2.00;;;;;29.20;45.11;101276.19;5074582;27;46744;-70
2021/07/29 08:31:36;;;;;;;;;2.50;2.50;;;;;29.46;46.21;101281.31;5075410;27;45366;-70
2021/07/29 08:34:01;;;;;;;;;3.75;2.75;;;;;29.06;45.24;101279.59;5059319;28;45352;-70
2021/07/29 08:36:27;;;;;;;;;4.00;2.25;;;;;28.31;45.16;101275.25;5077304;27;45559;-71
2021/07/29 08:38:52;;;;;;;;;5.00;3.00;;;;;27.86;45.73;101282.94;5092260;27;47354;-70
2021/07/29 08:41:18;;;;;;;;;4.75;3.75;;;;;27.21;45.64;101270.88;5074861;27;45247;-70
2021/07/29 08:43:45;;;;;;;;;3.00;2.00;;;;;27.90;46.25;101277.06;5075120;27;45441;-71
2021/07/29 08:46:13;;;;;;;;;2.00;2.00;;;;;28.80;44.88;101272.53;5075353;27;45374;-71
2021/07/29 08:48:45;;;;;;;;;3.00;3.00;;;;;29.40;45.44;101278.50;5076329;27;46277;-71
2021/07/29 08:51:10;;;;;;;;;2.00;2.00;;;;;31.47;41.59;101268.31;5076499;27;45591;-70
2021/07/29 08:53:36;;;;;;;;;1.00;1.00;;;;;31.60;42.33;101271.22;5075157;28;45489;-70
2021/07/29 08:56:01;;;;;;;;;5.00;3.25;;;;;32.53;40.47;101283.09;5075002;27;45305;-70
2021/07/29 08:58:27;;;;;;;;;2.00;2.00;;;;;33.57;37.92;101272.22;5072956;27;46512;-71
2021/07/29 09:01:05;;;;;;;;;4.00;2.75;;;;;33.59;38.94;101283.78;5074872;27;45459;-70
2021/07/29 09:03:32;;;;;;;;;10.00;4.00;;;;;36.18;37.00;101273.34;5075688;27;45404;-71
2021/07/29 09:06:03;;;;;;;;;2.00;2.00;;;;;39.40;34.48;101275.66;5074962;27;45401;-71
2021/07/29 09:08:41;;;;;;;;;2.50;2.50;;;;;40.86;30.55;101284.03;5074366;28;45344;-71
2021/07/29 09:11:26;;;;;;;;;2.25;1.50;;;;;40.56;29.55;101281.66;5074716;28;45524;-71
2021/07/29 09:14:16;;;;;;;;;1.75;1.75;;;;;42.46;29.77;101280.06;5074258;27;45334;-71
2021/07/29 09:17:01;;;;;;;;;2.25;1.00;;;;;45.29;26.35;101271.69;5073734;27;45413;-71
2021/07/29 09:19:35;;;;;;;;;2.50;2.00;;;;;43.34;23.52;101285.84;5074765;27;46591;-71
2021/07/29 09:22:22;;;;;;;;;1.00;1.00;;;;;39.26;26.53;101280.63;5074732;28;45361;-71
2021/07/29 09:25:04;;;;;;;;;1.00;1.00;;;;;36.37;28.47;101279.72;5072946;27;45451;-71
2021/07/29 09:27:38;;;;;;;;;1.00;1.00;;;;;34.02;30.61;101281.59;5071815;28;45311;-71
2021/07/29 09:30:27;;;;;;;;;2.50;2.00;;;;;32.13;32.96;101280.81;5074169;27;45735;-71
2021/07/29 09:33:12;;;;;;;;;1.50;0.75;;;;;32.68;34.16;101271.06;5074587;27;45487;-71
2021/07/29 09:35:40;;;;;;;;;1.50;1.50;;;;;33.68;34.23;101269.75;5074479;27;45511;-71
2021/07/29 09:38:26;;;;;;;;;1.25;1.25;;;;;34.36;32.24;101275.16;5072898;27;45484;-71
2021/07/29 09:40:58;;;;;;;;;1.00;1.00;;;;;33.85;32.08;101275.66;5073322;27;45597;-70
2021/07/29 09:43:31;;;;;;;;;1.75;1.75;;;;;33.18;32.30;101260.09;5073961;27;45555;-71
2021/07/29 09:45:59;;;;;;;;;0.50;0.50;;;;;32.94;32.66;101270.44;5074853;27;45284;-70
2021/07/29 09:48:24;;;;;;;;;1.00;0.75;;;;;32.44;33.53;101263.34;5076053;27;45298;-71
2021/07/29 09:51:00;;;;;;;;;1.25;1.25;;;;;31.63;34.39;101268.94;5073878;27;45494;-70
2021/07/29 09:53:33;;;;;;;;;3.25;1.00;;;;;30.66;35.05;101269.00;5074467;27;45629;-71
2021/07/29 09:55:59;;;;;;;;;3.00;1.00;;;;;29.98;35.25;101277.19;5072385;27;45497;-70
2021/07/29 09:58:24;;;;;;;;;1.75;1.75;;;;;29.98;35.45;101269.88;5071369;28;45522;-71
2021/07/29 10:00:50;;;;;;;;;0.75;0.75;;;;;30.38;36.07;101267.91;5073139;27;45855;-71
2021/07/29 10:03:22;;;;;;;;;1.50;1.50;;;;;30.92;36.24;101257.75;5076313;27;45496;-71
2021/07/29 10:05:58;;;;;;;;;3.25;3.25;;;;;31.24;34.95;101252.97;5073806;27;45484;-71
2021/07/29 10:08:35;;;;;;;;;1.50;1.50;;;;;31.23;35.73;101255.88;5073407;27;45345;-71
2021/07/29 10:11:03;;;;;;;;;1.25;1.25;;;;;31.00;34.44;101259.50;5073204;27;46795;-70
2021/07/29 10:13:41;;;;;;;;;3.50;2.00;;;;;30.68;35.38;101261.53;5073752;27;45421;-70
2021/07/29 10:16:08;;;;;;;;;3.00;1.00;;;;;30.29;35.58;101253.59;5056886;28;45414;-70
2021/07/29 10:18:52;;;;;;;;;1.75;1.75;;;;;29.80;35.55;101258.47;5075725;27;45488;-71
2021/07/29 10:21:30;;;;;;;;;1.50;1.50;;;;;29.71;35.68;101265.84;5075503;27;45270;-71
2021/07/29 10:23:58;;;;;;;;;1.75;1.00;;;;;29.79;36.87;101252.22;5073893;28;45641;-70
2021/07/29 10:26:24;;;;;;;;;3.25;2.00;;;;;29.98;36.73;101245.50;5073009;27;47158;-70
2021/07/29 10:28:51;;;;;;;;;1.75;1.50;;;;;30.23;36.83;101242.63;5073446;27;45324;-70
2021/07/29 10:31:18;;;;;;;;;1.00;1.00;;;;;30.39;35.95;101243.34;5070192;28;46485;-71
2021/07/29 10:33:45;;;;;;;;;1.50;1.50;;;;;30.55;35.82;101234.19;5072491;27;45341;-71
2021/07/29 10:36:44;;;;;;;;;0.25;0.00;;;;;30.75;35.49;101234.53;5073253;27;45444;-71
2021/07/29 10:39:10;;;;;;;;;3.50;1.25;;;;;30.78;34.30;101245.00;5075019;28;45335;-71
2021/07/29 10:41:35;;;;;;;;;0.75;0.75;;;;;30.98;35.09;101249.88;5072886;27;45335;-71
2021/07/29 10:44:04;;;;;;;;;2.00;1.00;;;;;31.19;33.86;101225.53;5073296;27;45787;-71
2021/07/29 10:46:54;;;;;;;;;1.75;1.75;;;;;31.24;33.65;101241.25;5073029;28;47853;-71
2021/07/29 10:49:19;;;;;;;;;1.50;1.50;;;;;31.15;34.19;101233.22;5059493;28;45443;-71
2021/07/29 10:52:08;;;;;;;;;0.00;0.00;;;;;31.18;33.97;101237.44;5073591;27;46372;-71
2021/07/29 10:54:37;;;;;;;;;1.50;1.00;;;;;31.41;34.06;101229.19;5070873;28;45565;-70
2021/07/29 10:57:03;;;;;;;;;1.00;1.00;;;;;31.63;34.43;101235.50;5073767;27;45287;-71
2021/07/29 10:59:29;;;;;;;;;2.50;0.50;;;;;31.62;33.52;101236.53;5072369;27;47537;-71
2021/07/29 11:01:54;;;;;;;;;4.00;1.50;;;;;31.14;33.35;101238.84;5068899;28;46410;-71
2021/07/29 11:04:27;;;;;;;;;0.50;0.50;;;;;30.50;34.71;101236.63;5073087;27;45517;-71
2021/07/29 11:07:05;;;;;;;;;2.00;0.50;;;;;30.01;34.15;101244.28;5073238;27;45353;-71
2021/07/29 11:09:32;;;;;;;;;2.00;2.00;;;;;29.69;35.57;101239.94;5070434;28;45444;-71
2021/07/29 11:11:59;;;;;;;;;2.00;1.25;;;;;29.47;35.80;101233.41;5072919;27;45535;-71
2021/07/29 11:14:30;;;;;;;;;2.00;2.00;;;;;29.20;35.68;101232.88;5071918;27;45614;-70
2021/07/29 11:16:57;;;;;;;;;1.00;1.00;;;;;29.10;34.68;101232.25;5072823;28;45358;-71
2021/07/29 11:19:24;;;;;;;;;3.50;2.00;;;;;29.04;35.07;101232.94;5073151;27;45415;-71
2021/07/29 11:22:02;;;;;;;;;1.25;1.25;;;;;28.86;34.17;101231.25;5072751;27;45633;-71
2021/07/29 11:24:28;;;;;;;;;1.75;1.75;;;;;29.03;35.96;101215.88;5074758;27;45510;-71
2021/07/29 11:26:53;;;;;;;;;2.75;1.00;;;;;29.24;35.74;101226.09;5072748;28;45686;-71